Time;durP1;ratioP1;P1;durP2;ratioP2;P2;SDS_P1;SDS_P2;PMS_P1;PMS_P2;Temp;Humidity;BMP_temperature;BMP_pressure;BME280_temperature;BME280_humidity;BME280_pressure;Samples;Min_cycle;Max_cycle;Signal;HPM_P1;HPM_P2
2022/07/04 00:00:08;;;;;;;3.70;2.38;;;;;;;22.30;nan;-24436.41;4989215;28;20184;-62
2022/07/04 00:02:33;;;;;;;3.70;2.40;;;;;;;22.39;nan;-24439.03;4991321;28;20670;-62
2022/07/04 00:04:59;;;;;;;2.75;2.30;;;;;;;22.14;nan;-24432.00;4989961;28;20203;-60
2022/07/04 00:07:25;;;;;;;4.40;2.45;;;;;;;22.31;nan;-24436.84;4991945;28;20737;-60
2022/07/04 00:09:50;;;;;;;2.63;2.20;;;;;;;22.10;nan;-24431.03;4985865;28;20696;-60
2022/07/04 00:12:16;;;;;;;3.75;2.53;;;;;;;21.74;nan;-24421.19;4989454;28;20238;-61
2022/07/04 00:14:41;;;;;;;3.30;2.55;;;;;;;21.62;nan;-24417.84;4996314;28;20635;-61
2022/07/04 00:17:07;;;;;;;2.85;2.00;;;;;;;21.65;nan;-24418.69;4996853;28;20662;-60
2022/07/04 00:19:33;;;;;;;3.25;2.08;;;;;;;21.70;nan;-24419.94;4988971;28;20258;-61
2022/07/04 00:21:58;;;;;;;4.53;2.50;;;;;;;21.90;nan;-24425.63;5000338;28;20184;-61
2022/07/04 00:24:24;;;;;;;3.20;2.08;;;;;;;21.78;nan;-24422.16;4997848;28;20206;-60
2022/07/04 00:26:49;;;;;;;2.75;2.10;;;;;;;21.74;nan;-24421.19;4994649;28;20638;-61
2022/07/04 00:29:15;;;;;;;3.88;2.90;;;;;;;21.41;nan;-24412.19;4997280;28;20187;-60
2022/07/04 00:31:41;;;;;;;5.85;2.80;;;;;;;21.71;nan;-24420.22;4995083;28;20270;-61
2022/07/04 00:34:06;;;;;;;2.72;2.05;;;;;;;21.63;nan;-24418.13;4993670;28;20197;-61
2022/07/04 00:36:32;;;;;;;3.45;2.58;;;;;;;21.68;nan;-24419.38;4993969;28;20690;-61
2022/07/04 00:38:57;;;;;;;5.47;2.20;;;;;;;21.58;nan;-24416.88;4997070;28;20638;-61
2022/07/04 00:41:23;;;;;;;2.63;2.10;;;;;;;21.58;nan;-24416.75;4990371;28;20187;-61
2022/07/04 00:44:09;;;;;;;2.78;2.03;;;;;;;21.64;nan;-24418.41;5003985;28;20706;-61
2022/07/04 00:46:35;;;;;;;3.35;2.50;;;;;;;21.44;nan;-24412.88;4994574;28;20283;-60
2022/07/04 00:49:03;;;;;;;3.33;2.42;;;;;;;21.23;nan;-24407.19;4993611;28;20689;-60
2022/07/04 00:51:29;;;;;;;4.78;2.67;;;;;;;21.10;nan;-24403.72;4998302;28;20187;-61
2022/07/04 00:53:55;;;;;;;2.25;1.98;;;;;;;21.15;nan;-24404.97;4990953;28;20577;-61
2022/07/04 00:56:25;;;;;;;4.50;2.45;;;;;;;20.73;nan;-24393.44;4997952;28;20187;-61
2022/07/04 00:58:51;;;;;;;4.40;2.40;;;;;;;20.75;nan;-24393.88;4996820;28;20183;-61
2022/07/04 01:01:17;;;;;;;6.43;2.47;;;;;;;20.39;nan;-24384.16;4995449;28;20184;-60
2022/07/04 01:03:43;;;;;;;3.22;2.50;;;;;;;20.27;nan;-24380.81;4993338;28;20754;-61
2022/07/04 01:06:09;;;;;;;3.35;2.58;;;;;;;17.22;nan;-24297.00;4990737;28;20226;-61
2022/07/04 01:08:40;;;;;;;3.65;2.75;;;;;;;20.71;nan;-24392.91;4992887;28;20755;-60
2022/07/04 01:11:06;;;;;;;3.47;2.50;;;;;;;20.97;nan;-24400.13;4990360;28;20640;-61
2022/07/04 01:13:32;;;;;;;3.45;2.42;;;;;;;20.64;nan;-24390.97;4996112;28;20380;-60
2022/07/04 01:15:57;;;;;;;3.67;2.50;;;;;;;20.86;nan;-24396.91;4990446;28;20192;-60
2022/07/04 01:18:23;;;;;;;3.33;2.30;;;;;;;20.76;nan;-24394.28;4992069;28;20215;-61
2022/07/04 01:20:49;;;;;;;2.97;2.30;;;;;;;20.50;nan;-24387.06;4989712;28;20641;-60
2022/07/04 01:23:15;;;;;;;3.85;2.45;;;;;;;20.36;nan;-24383.31;4991617;28;20930;-61
2022/07/04 01:25:41;;;;;;;5.00;2.67;;;;;;;20.51;nan;-24387.34;4992366;28;20184;-61
2022/07/04 01:28:07;;;;;;;2.95;2.25;;;;;;;20.46;nan;-24386.09;4994686;28;20567;-61
2022/07/04 01:30:33;;;;;;;4.20;2.50;;;;;;;20.55;nan;-24388.59;5000456;28;20172;-61
2022/07/04 01:32:59;;;;;;;3.67;2.58;;;;;;;20.17;nan;-24378.03;4996715;28;20195;-61
2022/07/04 01:35:24;;;;;;;3.67;2.30;;;;;;;20.40;nan;-24384.44;5003316;28;20184;-61
2022/07/04 01:37:50;;;;;;;2.95;2.25;;;;;;;20.49;nan;-24386.78;5003092;28;20187;-60
2022/07/04 01:40:16;;;;;;;5.53;2.50;;;;;;;20.33;nan;-24382.34;5000986;28;20552;-61
2022/07/04 01:42:42;;;;;;;4.32;2.67;;;;;;;20.37;nan;-24383.47;4995015;28;20286;-60
2022/07/04 01:45:08;;;;;;;2.75;2.40;;;;;;;20.45;nan;-24385.81;5000962;28;20208;-61
2022/07/04 01:47:35;;;;;;;2.63;2.03;;;;;;;20.13;nan;-24377.06;4994805;28;20317;-61
2022/07/04 01:50:02;;;;;;;3.03;2.25;;;;;;;20.26;nan;-24380.53;5002209;28;20192;-60
2022/07/04 01:52:39;;;;;;;5.30;2.42;;;;;;;20.13;nan;-24376.94;5008014;28;20180;-63
2022/07/04 01:55:18;;;;;;;3.47;2.35;;;;;;;20.15;nan;-24377.63;5007573;28;20196;-65
2022/07/04 01:57:47;;;;;;;3.17;2.40;;;;;;;19.88;nan;-24370.13;5009751;28;20176;-68
2022/07/04 02:03:08;;;;;;;3.63;2.72;;;;;;;20.06;nan;-24375.00;5005974;28;20191;-62
2022/07/04 02:06:03;;;;;;;3.63;2.40;;;;;;;20.09;nan;-24375.81;5004056;28;20210;-61
2022/07/04 02:11:26;;;;;;;4.38;2.83;;;;;;;20.10;nan;-24376.25;4979420;28;20263;-63
2022/07/04 02:13:51;;;;;;;4.50;2.70;;;;;;;19.88;nan;-24369.97;4998827;28;20212;-63
2022/07/04 02:16:16;;;;;;;6.05;3.08;;;;;;;19.58;nan;-24361.78;4973156;28;20227;-60
2022/07/04 02:18:42;;;;;;;5.65;2.70;;;;;;;19.79;nan;-24367.75;4974471;28;20274;-62
2022/07/04 02:21:07;;;;;;;4.45;3.03;;;;;;;19.54;nan;-24360.81;4977717;28;20901;-63
2022/07/04 02:23:33;;;;;;;3.80;2.70;;;;;;;19.71;nan;-24365.53;4977308;28;20187;-61
2022/07/04 02:25:58;;;;;;;3.58;2.67;;;;;;;19.47;nan;-24358.72;4977993;28;20267;-62
2022/07/04 02:28:23;;;;;;;4.60;3.08;;;;;;;19.60;nan;-24362.34;4978715;28;20312;-60
2022/07/04 02:30:49;;;;;;;4.55;3.13;;;;;;;19.52;nan;-24360.13;4972474;28;20852;-62
2022/07/04 02:33:14;;;;;;;7.18;3.10;;;;;;;19.64;nan;-24363.59;4980947;28;20267;-63
2022/07/04 02:35:40;;;;;;;3.95;2.78;;;;;;;19.81;nan;-24368.31;4979655;28;20623;-64
2022/07/04 02:38:05;;;;;;;3.40;2.65;;;;;;;19.82;nan;-24368.47;4979381;28;20276;-61
2022/07/04 02:40:31;;;;;;;5.55;2.80;;;;;;;19.52;nan;-24360.25;4979433;28;20856;-63
2022/07/04 02:42:56;;;;;;;7.28;2.92;;;;;;;19.80;nan;-24367.91;4981384;28;20339;-62
2022/07/04 02:45:21;;;;;;;4.22;3.05;;;;;;;19.51;nan;-24359.84;4980034;28;20591;-60
2022/07/04 02:47:47;;;;;;;6.57;2.80;;;;;;;19.52;nan;-24360.13;4983365;28;20659;-61
2022/07/04 02:50:12;;;;;;;4.10;2.90;;;;;;;19.39;nan;-24356.78;4965574;28;20553;-61
2022/07/04 02:52:38;;;;;;;4.18;2.80;;;;;;;19.78;nan;-24367.47;4979139;28;20207;-62
2022/07/04 02:55:04;;;;;;;6.75;2.42;;;;;;;19.60;nan;-24362.34;4981229;28;20185;-63
2022/07/04 02:57:29;;;;;;;3.60;2.50;;;;;;;19.81;nan;-24368.31;4978546;28;20624;-62
2022/07/04 02:59:54;;;;;;;5.15;2.58;;;;;;;19.60;nan;-24362.47;4983318;28;20177;-61
2022/07/04 03:02:20;;;;;;;5.38;3.08;;;;;;;19.83;nan;-24368.72;4981104;28;20213;-63
2022/07/04 03:04:45;;;;;;;4.80;2.88;;;;;;;19.93;nan;-24371.50;4979910;28;20218;-61
2022/07/04 03:07:11;;;;;;;4.63;2.80;;;;;;;20.30;nan;-24381.66;4977255;28;20179;-62
2022/07/04 03:09:36;;;;;;;4.97;2.70;;;;;;;20.85;nan;-24396.66;4968231;28;20185;-61
2022/07/04 03:12:02;;;;;;;3.95;2.83;;;;;;;21.40;nan;-24411.75;4971137;28;20189;-63
2022/07/04 03:14:27;;;;;;;3.92;2.80;;;;;;;21.87;nan;-24424.66;4975013;28;20281;-61
2022/07/04 03:16:53;;;;;;;4.57;2.83;;;;;;;22.23;nan;-24434.63;4970856;28;20640;-61
2022/07/04 03:19:18;;;;;;;4.53;2.85;;;;;;;23.01;nan;-24455.91;4971895;28;20256;-62
2022/07/04 03:21:44;;;;;;;3.95;2.80;;;;;;;23.33;nan;-24464.75;4975692;28;20562;-62
2022/07/04 03:24:10;;;;;;;3.95;2.53;;;;;;;23.94;nan;-24481.31;4972831;28;20255;-61
2022/07/04 03:26:35;;;;;;;3.70;2.67;;;;;;;24.19;nan;-24488.09;4969588;28;20251;-59
2022/07/04 03:29:01;;;;;;;3.53;2.60;;;;;;;24.84;nan;-24505.72;4967189;28;22486;-60
2022/07/04 03:31:28;;;;;;;4.07;2.75;;;;;;;25.57;nan;-24525.56;4968189;28;20199;-61
2022/07/04 03:33:54;;;;;;;3.85;2.60;;;;;;;25.91;nan;-24534.91;4972192;28;22031;-64
2022/07/04 03:36:19;;;;;;;3.85;2.80;;;;;;;26.34;nan;-24546.72;4968056;28;20197;-62
2022/07/04 03:38:45;;;;;;;6.97;2.90;;;;;;;26.93;nan;-24562.66;4961637;28;20200;-63
2022/07/04 03:41:11;;;;;;;3.80;2.90;;;;;;;27.19;nan;-24569.63;4964942;28;20199;-64
2022/07/04 03:43:36;;;;;;;4.45;2.97;;;;;;;28.05;nan;-24592.94;4962403;28;20188;-62
2022/07/04 03:46:03;;;;;;;3.75;2.75;;;;;;;28.18;nan;-24596.50;4966950;28;20191;-60
2022/07/04 03:48:29;;;;;;;4.25;2.83;;;;;;;28.82;nan;-24613.72;4967974;28;20631;-65
2022/07/04 03:50:54;;;;;;;5.05;3.00;;;;;;;29.60;nan;-24634.75;4960390;28;20188;-62
2022/07/04 03:53:20;;;;;;;3.50;2.80;;;;;;;28.90;nan;-24615.91;4967420;28;20339;-59
2022/07/04 03:55:46;;;;;;;6.07;3.35;;;;;;;30.29;nan;-24653.59;4972124;28;20195;-59
2022/07/04 03:58:11;;;;;;;4.75;2.88;;;;;;;30.85;nan;-24668.56;4962705;28;20184;-63
2022/07/04 04:00:37;;;;;;;3.80;2.80;;;;;;;30.63;nan;-24662.72;4964844;28;20210;-63
2022/07/04 04:05:25;;;;;;;3.88;2.85;;;;;;;30.58;nan;-24661.22;4967751;28;20185;-60
2022/07/04 04:05:48;;;;;;;4.13;2.80;;;;;;;30.50;nan;-24659.03;4960753;28;20282;-60
2022/07/04 04:08:13;;;;;;;4.88;2.92;;;;;;;30.63;nan;-24662.72;4958905;28;20676;-61
2022/07/04 04:10:39;;;;;;;3.33;2.63;;;;;;;31.20;nan;-24677.84;4961504;28;20758;-62
2022/07/04 04:13:04;;;;;;;6.95;2.63;;;;;;;31.26;nan;-24679.59;4965123;28;20184;-62
2022/07/04 04:15:30;;;;;;;3.90;2.78;;;;;;;30.56;nan;-24660.69;4961071;28;20189;-59
2022/07/04 04:17:55;;;;;;;3.45;2.25;;;;;;;31.12;nan;-24675.91;4959408;28;20250;-63
2022/07/04 04:20:21;;;;;;;3.95;2.78;;;;;;;31.83;nan;-24694.97;4965848;28;20228;-63
2022/07/04 04:22:46;;;;;;;5.05;3.08;;;;;;;31.63;nan;-24689.41;4969995;28;20184;-63
2022/07/04 04:25:11;;;;;;;5.78;2.65;;;;;;;31.38;nan;-24682.88;4979403;28;20189;-60
2022/07/04 04:27:37;;;;;;;7.82;3.00;;;;;;;32.05;nan;-24700.78;4979335;28;20242;-60
2022/07/04 04:30:04;;;;;;;5.13;2.70;;;;;;;31.86;nan;-24695.78;4974721;28;20191;-62
2022/07/04 04:32:29;;;;;;;4.43;3.15;;;;;;;31.99;nan;-24699.16;4975687;28;20183;-61
2022/07/04 04:34:54;;;;;;;5.70;3.10;;;;;;;31.81;nan;-24694.41;4979379;28;20198;-61
2022/07/04 04:37:20;;;;;;;4.38;2.83;;;;;;;31.38;nan;-24682.72;4989209;28;20184;-61
2022/07/04 04:39:45;;;;;;;4.97;2.72;;;;;;;31.86;nan;-24695.78;4973010;28;20259;-61
2022/07/04 04:42:11;;;;;;;5.10;3.00;;;;;;;31.50;nan;-24685.97;4971154;28;20172;-63
2022/07/04 04:44:36;;;;;;;6.72;3.28;;;;;;;31.47;nan;-24685.16;4973059;28;20215;-61
2022/07/04 04:47:02;;;;;;;5.57;3.38;;;;;;;31.27;nan;-24679.88;4974413;28;20191;-63
2022/07/04 04:49:28;;;;;;;5.93;3.30;;;;;;;31.65;nan;-24690.06;4974094;28;20638;-63
2022/07/04 04:51:53;;;;;;;3.63;2.85;;;;;;;31.11;nan;-24675.53;4970783;28;20188;-64
2022/07/04 04:54:19;;;;;;;4.78;3.20;;;;;;;31.04;nan;-24673.75;4979227;28;20180;-61
2022/07/04 04:56:44;;;;;;;6.68;3.10;;;;;;;31.37;nan;-24682.44;4976344;28;20185;-61
2022/07/04 04:59:10;;;;;;;5.18;2.65;;;;;;;31.58;nan;-24688.03;4968293;28;20188;-61
2022/07/04 05:01:35;;;;;;;4.10;2.78;;;;;;;30.82;nan;-24667.75;4972871;28;20184;-63
2022/07/04 05:04:01;;;;;;;3.92;2.60;;;;;;;30.89;nan;-24669.66;4978215;28;20199;-60
2022/07/04 05:06:26;;;;;;;4.53;2.70;;;;;;;30.57;nan;-24660.94;4972064;28;20667;-61
2022/07/04 05:08:52;;;;;;;5.65;2.63;;;;;;;30.48;nan;-24658.50;4974578;28;20297;-61
2022/07/04 05:11:17;;;;;;;4.22;2.80;;;;;;;30.27;nan;-24652.91;4973300;28;20181;-60
2022/07/04 05:13:43;;;;;;;3.08;2.33;;;;;;;30.07;nan;-24647.44;4973554;28;20328;-62
2022/07/04 05:16:09;;;;;;;3.28;2.38;;;;;;;30.54;nan;-24660.13;4966698;28;20181;-62
2022/07/04 05:18:34;;;;;;;3.40;2.50;;;;;;;30.32;nan;-24654.13;4972026;28;20739;-63
2022/07/04 05:21:00;;;;;;;5.65;2.50;;;;;;;30.15;nan;-24649.63;4974052;28;20180;-62
2022/07/04 05:23:25;;;;;;;4.05;2.92;;;;;;;30.84;nan;-24668.16;4971561;28;20192;-61
2022/07/04 05:25:51;;;;;;;4.70;3.13;;;;;;;30.89;nan;-24669.66;4969689;28;20660;-60
2022/07/04 05:28:16;;;;;;;3.67;2.53;;;;;;;31.19;nan;-24677.56;4977907;28;20184;-62
2022/07/04 05:30:42;;;;;;;3.25;2.30;;;;;;;30.29;nan;-24653.59;4983810;28;20220;-61
2022/07/04 05:33:08;;;;;;;2.80;2.35;;;;;;;30.23;nan;-24651.94;4977231;28;20216;-61
2022/07/04 05:35:33;;;;;;;3.92;2.63;;;;;;;27.12;nan;-24567.72;4979523;28;20662;-60
2022/07/04 05:37:58;;;;;;;3.60;2.50;;;;;;;30.25;nan;-24652.34;4980428;28;20180;-62
2022/07/04 05:40:24;;;;;;;3.35;2.53;;;;;;;30.56;nan;-24660.69;4976237;28;20650;-62
2022/07/04 05:42:49;;;;;;;5.82;2.38;;;;;;;29.96;nan;-24644.59;4975540;28;20192;-60
2022/07/04 05:45:15;;;;;;;3.13;2.42;;;;;;;29.94;nan;-24644.03;4935972;28;20480;-61
2022/07/04 05:47:41;;;;;;;7.00;3.22;;;;;;;29.91;nan;-24643.09;4931508;28;20188;-60
2022/07/04 05:50:06;;;;;;;4.03;2.88;;;;;;;29.57;nan;-24633.94;4926581;28;20281;-60
2022/07/04 05:52:32;;;;;;;5.40;2.70;;;;;;;29.15;nan;-24622.75;4937733;28;21112;-60
2022/07/04 05:54:57;;;;;;;3.40;2.60;;;;;;;28.74;nan;-24611.69;4927343;28;20224;-61
2022/07/04 05:57:23;;;;;;;3.88;2.38;;;;;;;28.66;nan;-24609.34;4932019;28;20185;-61
2022/07/04 05:59:49;;;;;;;3.38;2.38;;;;;;;28.30;nan;-24599.66;4930170;28;20633;-61
2022/07/04 06:02:15;;;;;;;3.08;2.50;;;;;;;27.12;nan;-24567.72;4933354;28;20796;-61
2022/07/04 06:04:40;;;;;;;3.47;2.55;;;;;;;27.35;nan;-24573.88;4946050;28;20311;-61
2022/07/04 06:07:06;;;;;;;3.97;2.63;;;;;;;26.83;nan;-24559.91;4936124;28;20194;-61
2022/07/04 06:09:32;;;;;;;3.88;2.65;;;;;;;26.74;nan;-24557.44;4942308;28;20308;-62
2022/07/04 06:11:58;;;;;;;4.13;2.90;;;;;;;26.91;nan;-24561.97;4943148;28;20209;-62
2022/07/04 06:14:23;;;;;;;3.10;2.33;;;;;;;26.83;nan;-24559.91;4934827;28;20641;-61
2022/07/04 06:16:49;;;;;;;3.72;2.53;;;;;;;26.97;nan;-24563.75;4938586;28;20194;-62
2022/07/04 06:19:14;;;;;;;3.38;2.33;;;;;;;26.72;nan;-24556.88;4943259;28;20233;-61
2022/07/04 06:21:40;;;;;;;3.53;2.45;;;;;;;26.65;nan;-24555.09;4945532;28;20186;-63
2022/07/04 06:24:05;;;;;;;2.88;2.42;;;;;;;26.97;nan;-24563.75;4943369;28;22067;-63
2022/07/04 06:26:31;;;;;;;3.30;2.25;;;;;;;27.09;nan;-24567.03;4933829;28;20224;-61
2022/07/04 06:28:57;;;;;;;3.90;2.55;;;;;;;27.34;nan;-24573.75;4928209;28;20250;-62
2022/07/04 06:31:23;;;;;;;2.50;2.30;;;;;;;27.09;nan;-24566.91;4929057;28;20724;-61
2022/07/04 06:36:44;;;;;;;3.17;2.25;;;;;;;26.27;nan;-24544.66;4919212;28;20871;-62
2022/07/04 06:39:09;;;;;;;3.67;2.50;;;;;;;26.78;nan;-24558.53;4931532;28;21166;-62
2022/07/04 06:41:35;;;;;;;3.00;2.42;;;;;;;26.95;nan;-24563.19;4930535;28;20181;-61
2022/07/04 06:44:00;;;;;;;3.83;2.85;;;;;;;27.02;nan;-24565.13;4937513;28;20252;-61
2022/07/04 06:46:26;;;;;;;3.65;2.55;;;;;;;27.15;nan;-24568.53;4935923;28;20189;-62
2022/07/04 06:48:51;;;;;;;5.80;2.92;;;;;;;27.03;nan;-24565.38;4939286;28;20597;-61
2022/07/04 06:51:17;;;;;;;4.22;2.75;;;;;;;27.21;nan;-24570.19;4936453;28;20248;-61
2022/07/04 06:53:44;;;;;;;3.10;2.50;;;;;;;27.60;nan;-24580.75;4940854;28;20189;-61
2022/07/04 06:56:10;;;;;;;4.50;3.00;;;;;;;27.82;nan;-24586.78;4930177;28;20618;-62
2022/07/04 06:58:35;;;;;;;3.67;2.67;;;;;;;27.60;nan;-24580.75;4931975;28;20204;-61
2022/07/04 07:01:01;;;;;;;3.88;2.90;;;;;;;27.80;nan;-24586.22;4925914;28;20231;-61
2022/07/04 07:03:27;;;;;;;4.45;2.72;;;;;;;27.87;nan;-24588.00;4925149;28;20183;-61
2022/07/04 07:05:53;;;;;;;3.50;2.60;;;;;;;27.92;nan;-24589.38;4932323;28;20221;-62
2022/07/04 07:08:18;;;;;;;4.28;2.60;;;;;;;27.79;nan;-24585.94;4929766;28;20220;-62
2022/07/04 07:10:44;;;;;;;3.80;2.65;;;;;;;27.93;nan;-24589.78;4925987;28;20799;-61
2022/07/04 07:13:10;;;;;;;3.55;2.75;;;;;;;27.71;nan;-24583.63;4933893;28;20733;-61
2022/07/04 07:15:35;;;;;;;4.68;2.67;;;;;;;28.08;nan;-24593.75;4929609;28;20228;-61
2022/07/04 07:18:02;;;;;;;5.13;2.55;;;;;;;28.49;nan;-24604.84;4936207;28;20650;-62
2022/07/04 07:20:28;;;;;;;4.45;3.10;;;;;;;28.43;nan;-24603.34;4940405;28;20229;-61
2022/07/04 07:22:53;;;;;;;4.05;3.15;;;;;;;28.43;nan;-24603.19;4934729;28;20196;-61
2022/07/04 07:25:19;;;;;;;3.58;2.65;;;;;;;28.37;nan;-24601.56;4927519;28;20213;-62
2022/07/04 07:27:44;;;;;;;4.40;2.80;;;;;;;28.47;nan;-24604.28;4934194;28;20239;-60
2022/07/04 07:30:10;;;;;;;4.47;2.83;;;;;;;28.44;nan;-24603.47;4931172;28;20741;-61
2022/07/04 07:32:36;;;;;;;3.78;2.60;;;;;;;28.45;nan;-24603.88;4932354;28;20197;-61
2022/07/04 07:35:01;;;;;;;4.00;2.80;;;;;;;28.71;nan;-24610.88;4933003;28;20259;-61
2022/07/04 07:37:27;;;;;;;5.20;2.67;;;;;;;28.40;nan;-24602.50;4927181;28;20255;-60
2022/07/04 07:39:52;;;;;;;4.05;2.92;;;;;;;28.69;nan;-24610.16;4926168;28;20185;-62
2022/07/04 07:42:18;;;;;;;3.83;2.95;;;;;;;28.78;nan;-24612.78;4928466;28;20209;-61
2022/07/04 07:44:46;;;;;;;3.53;2.85;;;;;;;28.87;nan;-24615.09;4932237;28;20210;-61
2022/07/04 07:47:15;;;;;;;4.70;2.90;;;;;;;28.96;nan;-24617.56;4939458;28;20853;-62
2022/07/04 07:49:41;;;;;;;3.90;2.67;;;;;;;28.87;nan;-24615.09;4946171;28;20644;-61
2022/07/04 07:52:07;;;;;;;3.55;2.78;;;;;;;28.73;nan;-24611.41;4946218;28;20188;-62
2022/07/04 07:54:32;;;;;;;5.18;3.30;;;;;;;29.12;nan;-24621.94;4942364;28;20189;-61
2022/07/04 07:56:58;;;;;;;5.28;3.33;;;;;;;28.98;nan;-24618.09;4946373;28;20300;-64
2022/07/04 07:59:23;;;;;;;3.70;2.70;;;;;;;29.14;nan;-24622.47;4931533;28;20186;-61
2022/07/04 08:01:49;;;;;;;4.15;2.90;;;;;;;29.02;nan;-24619.19;4939105;28;20189;-61
2022/07/04 08:06:58;;;;;;;4.63;3.00;;;;;;;29.47;nan;-24631.22;4944697;28;20588;-62
2022/07/04 08:09:24;;;;;;;3.80;2.88;;;;;;;29.60;nan;-24634.91;4942274;28;20224;-61
2022/07/04 08:11:49;;;;;;;4.80;3.20;;;;;;;29.54;nan;-24633.25;4940688;28;20185;-62
2022/07/04 08:14:15;;;;;;;4.30;3.05;;;;;;;29.74;nan;-24638.72;4938311;28;20207;-62
2022/07/04 08:16:40;;;;;;;5.00;3.20;;;;;;;29.95;nan;-24644.19;4940231;28;20196;-62
2022/07/04 08:19:06;;;;;;;3.72;2.95;;;;;;;29.97;nan;-24644.72;4942385;28;20237;-63
2022/07/04 08:21:31;;;;;;;4.05;2.78;;;;;;;30.03;nan;-24646.38;4930756;28;20247;-62
2022/07/04 08:23:57;;;;;;;5.50;3.25;;;;;;;30.13;nan;-24649.09;4929663;28;20295;-61
2022/07/04 08:26:24;;;;;;;4.65;2.92;;;;;;;29.94;nan;-24643.91;4930486;28;20304;-62
2022/07/04 08:28:51;;;;;;;4.20;3.08;;;;;;;30.04;nan;-24646.63;4930827;28;20193;-62
2022/07/04 08:31:18;;;;;;;3.58;2.80;;;;;;;30.24;nan;-24652.09;4939089;28;20292;-62
2022/07/04 08:33:44;;;;;;;3.95;3.00;;;;;;;30.20;nan;-24651.13;4930623;28;20191;-62
2022/07/04 08:36:09;;;;;;;5.25;3.35;;;;;;;30.01;nan;-24645.81;4927181;28;20208;-62
2022/07/04 08:38:35;;;;;;;3.95;3.00;;;;;;;30.04;nan;-24646.63;4946660;28;20196;-62
2022/07/04 08:41:03;;;;;;;2.95;2.47;;;;;;;30.02;nan;-24646.09;4926355;28;20272;-61
2022/07/04 08:43:33;;;;;;;4.32;3.08;;;;;;;30.15;nan;-24649.63;4925835;28;20181;-61
2022/07/04 08:46:01;;;;;;;5.75;3.22;;;;;;;30.24;nan;-24652.09;4927563;28;20196;-61
2022/07/04 08:48:27;;;;;;;5.18;2.90;;;;;;;30.34;nan;-24654.81;4930182;28;20295;-61
2022/07/04 08:50:59;;;;;;;4.28;3.00;;;;;;;30.40;nan;-24656.31;4925709;28;20185;-61
2022/07/04 08:53:31;;;;;;;5.15;3.03;;;;;;;30.59;nan;-24661.50;4927491;28;20275;-63
2022/07/04 08:58:42;;;;;;;7.00;2.90;;;;;;;30.70;nan;-24664.50;4929143;28;20232;-61
2022/07/04 09:01:16;;;;;;;7.22;3.08;;;;;;;31.00;nan;-24672.53;4927877;28;21589;-62
2022/07/04 09:03:43;;;;;;;4.80;3.15;;;;;;;31.11;nan;-24675.66;4925352;28;20189;-63
2022/07/04 09:06:10;;;;;;;3.80;2.70;;;;;;;30.91;nan;-24670.22;4925982;28;20299;-62
2022/07/04 09:08:37;;;;;;;4.07;2.75;;;;;;;31.20;nan;-24677.97;4923707;28;20277;-62
2022/07/04 09:11:03;;;;;;;3.45;2.78;;;;;;;31.16;nan;-24676.88;4925520;28;20649;-62
2022/07/04 09:13:29;;;;;;;4.35;2.80;;;;;;;31.31;nan;-24680.97;4929454;28;20739;-62
2022/07/04 09:15:55;;;;;;;4.00;2.88;;;;;;;31.48;nan;-24685.59;4928181;28;20182;-62
2022/07/04 09:18:20;;;;;;;3.95;2.80;;;;;;;31.33;nan;-24681.50;4928356;28;20805;-60
2022/07/04 09:20:46;;;;;;;4.95;2.50;;;;;;;31.19;nan;-24677.56;4935674;28;20244;-62
2022/07/04 09:23:20;;;;;;;4.65;2.63;;;;;;;30.94;nan;-24670.88;4929580;28;20191;-63
2022/07/04 09:25:46;;;;;;;4.30;2.75;;;;;;;31.15;nan;-24676.59;4927886;28;20259;-61
2022/07/04 09:28:25;;;;;;;3.28;2.40;;;;;;;30.96;nan;-24671.44;4930238;28;20201;-60
2022/07/04 09:30:50;;;;;;;3.90;2.75;;;;;;;31.25;nan;-24679.19;4925517;28;20193;-61
2022/07/04 09:33:18;;;;;;;4.32;2.70;;;;;;;31.76;nan;-24692.94;4926054;28;20177;-62
2022/07/04 09:35:44;;;;;;;4.53;2.92;;;;;;;31.97;nan;-24698.75;4936458;28;20181;-62
2022/07/04 09:38:11;;;;;;;3.25;2.42;;;;;;;31.84;nan;-24695.22;4928012;28;20185;-61
2022/07/04 09:43:25;;;;;;;3.53;2.47;;;;;;;31.91;nan;-24697.00;4928583;28;20231;-61
2022/07/04 09:46:10;;;;;;;3.65;2.78;;;;;;;32.39;nan;-24710.03;4928391;28;20209;-61
2022/07/04 09:48:56;;;;;;;3.50;2.70;;;;;;;32.66;nan;-24717.09;4930691;28;21023;-60
2022/07/04 09:51:43;;;;;;;3.33;2.63;;;;;;;32.24;nan;-24705.81;4928128;28;20207;-61
2022/07/04 09:54:35;;;;;;;4.25;3.00;;;;;;;32.38;nan;-24709.75;4933846;28;20265;-61
2022/07/04 09:57:02;;;;;;;2.97;2.30;;;;;;;31.65;nan;-24690.06;4927075;28;20252;-61
2022/07/04 09:59:30;;;;;;;2.97;2.08;;;;;;;31.63;nan;-24689.41;4938558;28;20528;-62
2022/07/04 10:02:09;;;;;;;3.65;2.42;;;;;;;31.53;nan;-24686.94;4933527;28;20560;-61
2022/07/04 10:04:47;;;;;;;3.80;2.67;;;;;;;31.56;nan;-24687.75;4941592;28;20332;-62
2022/07/04 10:07:35;;;;;;;4.25;2.83;;;;;;;31.73;nan;-24692.25;4933119;28;20221;-62
2022/07/04 10:10:21;;;;;;;3.67;2.63;;;;;;;32.27;nan;-24706.66;4932030;28;20181;-65
2022/07/04 10:12:49;;;;;;;3.33;2.47;;;;;;;32.29;nan;-24707.31;4930264;28;20188;-62
2022/07/04 10:15:16;;;;;;;3.60;2.92;;;;;;;31.65;nan;-24689.94;4928145;28;20189;-66
2022/07/04 10:17:41;;;;;;;3.53;2.88;;;;;;;31.97;nan;-24698.75;4935572;28;20203;-61
2022/07/04 10:20:08;;;;;;;4.10;2.90;;;;;;;31.58;nan;-24688.03;4937790;28;20728;-62
2022/07/04 10:22:36;;;;;;;3.10;2.50;;;;;;;31.60;nan;-24688.56;4934159;28;20228;-62
2022/07/04 10:25:01;;;;;;;3.60;2.60;;;;;;;28.33;nan;-24600.59;4938967;28;20244;-64
2022/07/04 10:27:27;;;;;;;3.15;2.35;;;;;;;31.76;nan;-24693.06;4938780;28;20243;-62
2022/07/04 10:29:53;;;;;;;4.65;2.50;;;;;;;31.83;nan;-24694.81;4929620;28;20835;-62
2022/07/04 10:32:20;;;;;;;3.20;2.42;;;;;;;32.10;nan;-24702.03;4935845;28;20283;-65
2022/07/04 10:34:45;;;;;;;4.32;3.00;;;;;;;32.40;nan;-24710.31;4930301;28;20188;-61
2022/07/04 10:37:11;;;;;;;3.17;2.45;;;;;;;32.60;nan;-24715.47;4933814;28;20177;-61
2022/07/04 10:39:36;;;;;;;4.47;2.60;;;;;;;32.44;nan;-24711.25;4927622;28;20665;-62
2022/07/04 10:42:02;;;;;;;4.13;2.70;;;;;;;28.43;nan;-24603.19;4929347;28;20208;-62
2022/07/04 10:44:36;;;;;;;4.05;2.90;;;;;;;31.81;nan;-24694.28;4929784;28;20208;-62
2022/07/04 10:47:03;;;;;;;4.93;2.83;;;;;;;28.20;nan;-24596.91;4929955;28;20923;-62
2022/07/04 10:49:28;;;;;;;3.55;2.58;;;;;;;29.30;nan;-24626.72;4937422;28;20248;-61
2022/07/04 10:51:56;;;;;;;3.50;2.58;;;;;;;31.63;nan;-24689.41;4933451;28;20990;-61
2022/07/04 10:54:30;;;;;;;4.38;3.00;;;;;;;32.01;nan;-24699.72;4931808;28;20196;-61
2022/07/04 10:56:56;;;;;;;3.35;2.50;;;;;;;31.99;nan;-24699.16;4928790;28;20213;-61
2022/07/04 10:59:27;;;;;;;3.72;2.72;;;;;;;32.22;nan;-24705.28;4930881;28;20258;-61
2022/07/04 11:02:09;;;;;;;3.47;2.78;;;;;;;32.50;nan;-24712.88;4929599;28;20213;-62
2022/07/04 11:04:54;;;;;;;6.68;2.80;;;;;;;32.18;nan;-24704.19;4925089;28;20202;-63
2022/07/04 11:07:21;;;;;;;3.83;2.78;;;;;;;31.94;nan;-24697.81;4929621;28;20217;-62
2022/07/04 11:10:13;;;;;;;3.58;2.80;;;;;;;32.62;nan;-24716.00;4931981;28;20193;-62
2022/07/04 11:12:53;;;;;;;4.97;3.10;;;;;;;32.39;nan;-24710.03;4926686;28;20576;-62
2022/07/04 11:15:28;;;;;;;5.50;2.63;;;;;;;32.47;nan;-24712.06;4928225;28;20177;-62
2022/07/04 11:18:08;;;;;;;3.50;2.80;;;;;;;31.90;nan;-24696.88;4927145;28;20195;-61
2022/07/04 11:20:35;;;;;;;4.43;2.97;;;;;;;31.32;nan;-24681.09;4931551;28;20980;-62
2022/07/04 11:23:08;;;;;;;3.53;2.60;;;;;;;31.77;nan;-24693.19;4933328;28;20186;-61
2022/07/04 11:25:34;;;;;;;6.68;2.78;;;;;;;31.76;nan;-24693.06;4929370;28;20426;-63
2022/07/04 11:28:26;;;;;;;3.97;2.72;;;;;;;32.45;nan;-24711.53;4938153;28;20973;-62
2022/07/04 11:30:52;;;;;;;3.42;2.70;;;;;;;32.36;nan;-24709.09;4928555;28;20196;-61
2022/07/04 11:33:22;;;;;;;4.45;2.95;;;;;;;29.84;nan;-24641.31;4926333;28;20314;-60
2022/07/04 11:36:08;;;;;;;4.32;2.85;;;;;;;32.02;nan;-24699.97;4935952;28;20220;-61
2022/07/04 11:39:00;;;;;;;3.33;2.67;;;;;;;32.37;nan;-24709.50;4930378;28;20299;-61
2022/07/04 11:47:10;;;;;;;3.33;2.67;;;;;;;32.65;nan;-24716.81;4936274;28;20255;-62
2022/07/04 11:49:42;;;;;;;3.90;2.70;;;;;;;32.82;nan;-24721.56;4932800;28;20287;-61
2022/07/04 11:52:08;;;;;;;4.95;3.33;;;;;;;32.66;nan;-24717.09;4936205;28;20276;-63
2022/07/04 11:54:33;;;;;;;2.70;2.40;;;;;;;32.48;nan;-24712.19;4934139;28;20684;-62
2022/07/04 11:57:14;;;;;;;3.88;2.67;;;;;;;31.88;nan;-24696.19;4938013;28;20217;-61
2022/07/04 11:59:39;;;;;;;3.30;2.60;;;;;;;31.97;nan;-24698.63;4931849;28;20307;-62
2022/07/04 12:02:13;;;;;;;3.42;2.70;;;;;;;31.91;nan;-24697.00;4927619;28;20180;-62
2022/07/04 12:04:41;;;;;;;4.20;2.70;;;;;;;32.15;nan;-24703.53;4928738;28;20204;-60